Data for 02/01/2017

Time Sea-Level Adjusted Pressure Absolute Pressure Temperature Relative Humidity Dew Point   
(mb) (inHg) (mb) (inHg) (C) (F) (%) (C) (F)
00:05 1020 30.12 849 25.07 -10.8 12.7 78 -13.8 7.1
00:10 1020 30.12 849 25.07 -10.8 12.6 79 -13.8 7.2
00:15 1020 30.12 849 25.07 -10.8 12.6 79 -13.7 7.3
00:20 1020 30.12 849 25.07 -10.8 12.5 80 -13.7 7.4
00:25 1020 30.12 849 25.07 -10.8 12.5 80 -13.6 7.6
00:30 1020 30.12 849 25.07 -10.9 12.5 82 -13.4 7.8
00:35 1020 30.12 849 25.07 -10.9 12.5 81 -13.5 7.8
00:40 1020 30.12 849 25.07 -10.9 12.4 83 -13.2 8.3
00:45 1020 30.12 849 25.07 -10.9 12.4 84 -13.1 8.4
00:50 1020 30.12 849 25.07 -10.9 12.4 86 -12.8 8.9
00:55 1020 30.12 849 25.07 -10.9 12.4 86 -12.9 8.9
01:00 1020 30.12 849 25.07 -10.9 12.4 85 -12.9 8.8
01:05 1020 30.12 849 25.07 -10.9 12.3 85 -13 8.6
01:10 1020 30.12 849 25.07 -10.9 12.3 84 -13.1 8.4
01:15 1020 30.12 849 25.07 -11 12.2 84 -13.1 8.3
01:20 1020 30.12 850 25.1 -11.1 12.1 85 -13.2 8.3
01:25 1020 30.12 850 25.1 -11.1 12.1 84 -13.2 8.3
01:30 1020 30.12 850 25.1 -11.1 12.1 84 -13.2 8.3
01:35 1021 30.15 850 25.1 -11 12.1 84 -13.2 8.2
01:40 1020 30.12 850 25.1 -11 12.1 85 -13.1 8.3
01:45 1020 30.12 849 25.07 -11 12.2 84 -13.2 8.3
01:50 1020 30.12 849 25.07 -11.1 12.1 84 -13.3 8.1
01:55 1020 30.12 849 25.07 -11.1 12 84 -13.3 8.1
02:00 1020 30.12 849 25.07 -11.1 12 84 -13.3 8.1
02:05 1020 30.12 849 25.07 -11.1 12 84 -13.3 8.1
02:10 1020 30.12 849 25.07 -11.1 12 84 -13.3 8
02:15 1020 30.12 849 25.07 -11.1 12 84 -13.3 8
02:20 1020 30.12 849 25.07 -11.1 12 85 -13.2 8.2
02:25 1020 30.12 849 25.07 -11.1 12.1 84 -13.2 8.2
02:30 1020 30.12 849 25.07 -11.1 12.1 84 -13.3 8
02:35 1020 30.12 849 25.07 -11.1 12 84 -13.3 8.1
02:40 1020 30.12 849 25.07 -11 12.1 84 -13.2 8.2
02:45 1020 30.12 849 25.07 -11 12.2 85 -13.1 8.4
02:50 1020 30.12 849 25.07 -11 12.3 84 -13.2 8.2
02:55 1020 30.12 849 25.07 -11.1 12 84 -13.3 8.1
03:00 1020 30.12 850 25.1 -11 12.1 84 -13.2 8.3
03:05 1020 30.12 850 25.1 -11 12.1 84 -13.2 8.2
03:10 1021 30.15 850 25.1 -11.1 12.1 84 -13.2 8.2
03:15 1021 30.15 850 25.1 -11.2 11.9 84 -13.3 8
03:20 1021 30.15 850 25.1 -11.3 11.6 84 -13.5 7.7
03:25 1021 30.15 850 25.1 -11.4 11.4 85 -13.5 7.8
03:30 1021 30.15 850 25.1 -11.4 11.5 85 -13.5 7.8
03:35 1021 30.15 850 25.1 -11.5 11.3 85 -13.6 7.6
03:40 1021 30.15 850 25.1 -11.6 11.1 85 -13.7 7.3
03:45 1021 30.15 850 25.1 -11.7 10.9 85 -13.7 7.3
03:50 1021 30.15 850 25.1 -11.6 11 86 -13.6 7.5
03:55 1021 30.15 850 25.1 -11.5 11.2 85 -13.5 7.7
04:00 1021 30.15 850 25.1 -11.5 11.3 85 -13.5 7.7
04:05 1021 30.15 850 25.1 -11.5 11.2 85 -13.6 7.6
04:10 1021 30.15 850 25.1 -11.6 11.2 85 -13.6 7.5
04:15 1021 30.15 850 25.1 -11.5 11.2 85 -13.6 7.6
04:20 1021 30.15 850 25.1 -11.6 11.1 85 -13.7 7.4
04:25 1021 30.15 850 25.1 -11.6 11.1 85 -13.6 7.5
04:30 1021 30.15 851 25.13 -11.6 11.1 85 -13.6 7.4
04:35 1021 30.15 851 25.13 -11.7 10.9 85 -13.7 7.3
04:40 1021 30.15 851 25.13 -11.7 10.9 85 -13.8 7.2
04:45 1021 30.15 851 25.13 -11.8 10.8 85 -13.9 7.1
04:50 1021 30.15 851 25.13 -11.8 10.8 85 -13.8 7.1
04:55 1022 30.18 851 25.13 -11.8 10.8 85 -13.8 7.1
05:00 1022 30.18 851 25.13 -11.7 10.9 85 -13.8 7.2
05:05 1022 30.18 851 25.13 -11.8 10.8 85 -13.8 7.2
05:10 1022 30.18 851 25.13 -11.8 10.7 85 -13.8 7.1
05:15 1022 30.18 851 25.13 -11.8 10.8 85 -13.8 7.1
05:20 1022 30.18 851 25.13 -11.7 10.9 84 -13.9 7
05:25 1022 30.18 851 25.13 -11.7 10.9 84 -13.9 7
05:30 1022 30.18 851 25.13 -11.8 10.8 85 -13.9 7
05:35 1022 30.18 851 25.13 -11.8 10.7 85 -13.9 7
05:40 1022 30.18 851 25.13 -11.8 10.7 85 -13.9 7
05:45 1022 30.18 851 25.13 -11.8 10.7 85 -13.9 6.9
05:50 1022 30.18 851 25.13 -11.9 10.7 84 -14 6.9
05:55 1022 30.18 851 25.13 -11.9 10.5 85 -14 6.7
06:00 1022 30.18 851 25.13 -11.9 10.5 84 -14.2 6.5
06:05 1022 30.18 851 25.13 -12.1 10.3 84 -14.2 6.4
06:10 1022 30.18 851 25.13 -12.1 10.3 84 -14.3 6.3
06:15 1022 30.18 851 25.13 -12.1 10.3 84 -14.3 6.3
06:20 1022 30.18 851 25.13 -12.1 10.3 84 -14.3 6.3
06:25 1022 30.18 852 25.16 -12.1 10.2 84 -14.3 6.2
06:30 1022 30.18 852 25.16 -12 10.4 83 -14.3 6.2
06:35 1023 30.21 852 25.16 -12.1 10.3 83 -14.4 6.1
06:40 1023 30.21 852 25.16 -12.1 10.2 83 -14.4 6.1
06:45 1023 30.21 852 25.16 -12.2 10.1 83 -14.5 5.9
06:50 1023 30.21 852 25.16 -12.1 10.2 83 -14.4 6
06:55 1023 30.21 852 25.16 -12.1 10.2 82 -14.5 5.8
07:00 1023 30.21 852 25.16 -12.1 10.2 83 -14.5 5.9
07:05 1023 30.21 852 25.16 -12.2 10.1 82 -14.7 5.6
07:10 1023 30.21 852 25.16 -12.3 9.9 82 -14.7 5.5
07:15 1023 30.21 852 25.16 -12.3 9.8 83 -14.7 5.5
07:20 1023 30.21 852 25.16 -12.4 9.8 83 -14.7 5.5
07:25 1023 30.21 852 25.16 -12.5 9.6 83 -14.8 5.4
07:30 1023 30.21 852 25.16 -12.4 9.6 83 -14.7 5.5
07:35 1023 30.21 852 25.16 -12.4 9.7 83 -14.7 5.5
07:40 1023 30.21 852 25.16 -12.6 9.4 83 -14.9 5.2
07:45 1023 30.21 853 25.19 -12.6 9.2 83 -15 4.9
07:50 1024 30.24 853 25.19 -12.7 9.1 83 -15.1 4.8
07:55 1024 30.24 853 25.19 -12.8 9 83 -15.1 4.8
08:00 1024 30.24 853 25.19 -12.8 8.9 82 -15.2 4.6
08:05 1024 30.24 853 25.19 -12.8 8.9 82 -15.3 4.4
08:10 1024 30.24 853 25.19 -13 8.5 82 -15.5 4.1
08:15 1024 30.24 853 25.19 -13.2 8.3 82 -15.7 3.8
08:20 1024 30.24 853 25.19 -13.2 8.2 81 -15.8 3.5
08:25 1024 30.24 853 25.19 -13.2 8.2 81 -15.9 3.5
08:30 1024 30.24 853 25.19 -13.2 8.3 80 -15.9 3.3
08:35 1024 30.24 853 25.19 -13.3 8.2 80 -16 3.2
08:40 1024 30.24 853 25.19 -13.3 8.1 80 -16 3.1
08:45 1024 30.24 854 25.22 -13.3 8.1 80 -16.1 3.1
08:50 1024 30.24 854 25.22 -13.2 8.2 80 -16.1 3.1
08:55 1024 30.24 854 25.22 -13.1 8.4 78 -16.1 3
09:00 1024 30.24 854 25.22 -13.1 8.4 78 -16.2 2.8
09:05 1025 30.27 854 25.22 -13.1 8.5 77 -16.3 2.7
09:10 1025 30.27 854 25.22 -12.9 8.7 76 -16.4 2.5
09:15 1025 30.27 854 25.22 -12.9 8.8 75 -16.4 2.6
09:20 1025 30.27 854 25.22 -12.9 8.8 76 -16.3 2.7
09:25 1025 30.27 854 25.22 -12.8 8.9 75 -16.3 2.6
09:30 1025 30.27 854 25.22 -12.4 9.6 73 -16.4 2.5
09:35 1025 30.27 854 25.22 -12.5 9.4 72 -16.6 2.1
09:40 1025 30.27 854 25.22 -12.7 9.1 72 -16.7 1.9
09:45 1025 30.27 854 25.22 -12.4 9.7 70 -16.7 1.9
09:50 1025 30.27 854 25.22 -12 10.4 70 -16.4 2.5
09:55 1025 30.27 854 25.22 -11.9 10.6 70 -16.4 2.6
10:00 1025 30.27 854 25.22 -12.7 9.2 75 -16.3 2.7
10:05 1025 30.27 854 25.22 -12.4 9.7 69 -16.9 1.6
10:10 1025 30.27 855 25.25 -12.3 9.9 69 -16.8 1.7
10:15 1025 30.27 855 25.25 -12.5 9.6 71 -16.8 1.8
10:20 1025 30.27 855 25.25 -12.8 9.1 71 -16.9 1.5
10:25 1025 30.27 855 25.25 -12.7 9.2 72 -16.8 1.8
10:30 1025 30.27 855 25.25 -13 8.6 71 -17.2 1.1
10:35 1025 30.27 855 25.25 -13.1 8.4 71 -17.3 0.8
10:40 1026 30.3 855 25.25 -12.5 9.5 69 -17.1 1.3
10:45 1026 30.3 855 25.25 -12.3 9.9 67 -17.1 1.2
10:50 1026 30.3 855 25.25 -12.5 9.6 67 -17.5 0.6
10:55 1026 30.3 855 25.25 -13 8.5 70 -17.4 0.7
11:00 1026 30.3 855 25.25 -12.9 8.8 70 -17.3 0.9
11:05 1026 30.3 855 25.25 -13.2 8.2 71 -17.5 0.6
11:10 1026 30.3 855 25.25 -13 8.6 69 -17.6 0.4
11:15 1026 30.3 855 25.25 -12.7 9.1 70 -17.1 1.2
11:20 1026 30.3 855 25.25 -12.5 9.4 67 -17.4 0.7
11:25 1026 30.3 855 25.25 -12.2 10 68 -17 1.4
11:30 1026 30.3 855 25.25 -12.5 9.4 69 -17.1 1.2
11:35 1026 30.3 855 25.25 -12.8 9 67 -17.8 0
11:40 1026 30.3 855 25.25 -12.9 8.8 68 -17.6 0.2
11:45 1026 30.3 855 25.25 -12.6 9.3 67 -17.6 0.4
11:50 1026 30.3 855 25.25 -12.8 8.9 67 -17.7 0.1
11:55 1026 30.3 855 25.25 -12.4 9.6 64 -17.9 -0.2
12:00 1026 30.3 855 25.25 -11.7 10.9 63 -17.4 0.6
12:05 1026 30.3 855 25.25 -11.7 11 64 -17.3 0.9
12:10 1026 30.3 855 25.25 -11.6 11 65 -17 1.3
12:15 1026 30.3 855 25.25 -11.9 10.6 62 -17.7 0.2
12:20 1026 30.3 855 25.25 -11.3 11.6 60 -17.5 0.4
12:25 1026 30.3 855 25.25 -11.1 12 60 -17.5 0.5
12:30 1026 30.3 855 25.25 -10.9 12.4 57 -17.7 0.1
12:35 1026 30.3 855 25.25 -11.4 11.6 61 -17.5 0.5
12:40 1026 30.3 855 25.25 -11.6 11.1 62 -17.5 0.6
12:45 1026 30.3 855 25.25 -11.4 11.5 61 -17.6 0.4
12:50 1026 30.3 855 25.25 -11.4 11.5 60 -17.7 0.2
12:55 1026 30.3 855 25.25 -11.5 11.3 62 -17.3 0.8
13:00 1026 30.3 855 25.25 -11.9 10.5 63 -17.5 0.5
13:05 1026 30.3 855 25.25 -12.2 10.1 61 -18.3 -0.9
13:10 1026 30.3 855 25.25 -12.2 10 61 -18.3 -1
13:15 1026 30.3 855 25.25 -12.3 9.8 61 -18.3 -1
13:20 1026 30.3 855 25.25 -12.2 10.1 61 -18.3 -0.9
13:25 1026 30.3 855 25.25 -11.9 10.5 61 -17.9 -0.3
13:30 1026 30.3 855 25.25 -12 10.3 62 -18 -0.4
13:35 1026 30.3 855 25.25 -12.1 10.3 62 -17.9 -0.2
13:40 1026 30.3 855 25.25 -11.9 10.6 61 -18 -0.3
13:45 1026 30.3 855 25.25 -11.5 11.4 59 -18 -0.4
13:50 1026 30.3 855 25.25 -11.4 11.6 59 -17.9 -0.3
13:55 1026 30.3 855 25.25 -11.3 11.6 57 -18.2 -0.7
14:00 1026 30.3 855 25.25 -11.4 11.5 56 -18.5 -1.2
14:05 1026 30.3 855 25.25 -11.9 10.6 60 -18.2 -0.8
14:10 1026 30.3 855 25.25 -11.6 11.1 58 -18.4 -1
14:15 1026 30.3 855 25.25 -11.5 11.4 56 -18.5 -1.3
14:20 1026 30.3 855 25.25 -11.7 11 56 -18.8 -1.8
14:25 1026 30.3 855 25.25 -11.9 10.7 58 -18.6 -1.5
14:30 1026 30.3 855 25.25 -11.6 11.1 57 -18.5 -1.3
14:35 1026 30.3 855 25.25 -11 12.3 55 -18.4 -1.2
14:40 1026 30.3 855 25.25 -11.3 11.7 57 -18.3 -1
14:45 1026 30.3 855 25.25 -11.5 11.3 58 -18.3 -1
14:50 1026 30.3 855 25.25 -11.8 10.7 57 -18.8 -1.8
14:55 1026 30.3 855 25.25 -12 10.4 59 -18.5 -1.4
15:00 1026 30.3 855 25.25 -11.9 10.6 58 -18.5 -1.4
15:05 1026 30.3 855 25.25 -11.8 10.8 58 -18.5 -1.4
15:10 1026 30.3 855 25.25 -12.2 10.1 58 -18.9 -2
15:15 1026 30.3 855 25.25 -12.2 10.1 59 -18.6 -1.5
15:20 1026 30.3 855 25.25 -13.1 8.4 61 -19.1 -2.4
15:25 1026 30.3 855 25.25 -13 8.6 60 -19.2 -2.5
15:30 1026 30.3 855 25.25 -13 8.6 60 -19.2 -2.5
15:35 1026 30.3 855 25.25 -12.9 8.7 61 -19 -2.2
15:40 1026 30.3 855 25.25 -13.4 7.9 61 -19.4 -2.9
15:45 1026 30.3 856 25.28 -13.4 7.8 62 -19.3 -2.7
15:50 1026 30.3 856 25.28 -14 6.7 64 -19.4 -3
15:55 1026 30.3 856 25.28 -14.1 6.6 64 -19.4 -3
16:00 1026 30.3 856 25.28 -13.9 7 64 -19.3 -2.7
16:05 1026 30.3 856 25.28 -13.8 7.1 64 -19.3 -2.7
16:10 1026 30.3 856 25.28 -13.9 6.9 64 -19.3 -2.7
16:15 1026 30.3 856 25.28 -14.1 6.7 66 -19.2 -2.6
16:20 1026 30.3 856 25.28 -14.1 6.6 65 -19.3 -2.8
16:25 1026 30.3 856 25.28 -14.3 6.3 66 -19.3 -2.8
16:30 1026 30.3 856 25.28 -14.2 6.5 67 -19 -2.3
16:35 1026 30.3 856 25.28 -14.2 6.5 66 -19.2 -2.6
16:40 1026 30.3 856 25.28 -14.4 6.1 66 -19.4 -2.9
16:45 1026 30.3 856 25.28 -14.7 5.5 69 -19.3 -2.7
16:50 1026 30.3 856 25.28 -14.8 5.4 68 -19.4 -2.9
16:55 1027 30.33 856 25.28 -15 4.9 71 -19.3 -2.7
17:00 1027 30.33 856 25.28 -15.1 4.9 71 -19.3 -2.7
17:05 1026 30.3 856 25.28 -15.1 4.9 71 -19.2 -2.6
17:10 1026 30.3 856 25.28 -15.1 4.8 71 -19.3 -2.7
17:15 1026 30.3 856 25.28 -15.3 4.5 71 -19.4 -3
17:20 1026 30.3 856 25.28 -15.5 4.2 71 -19.6 -3.2
17:25 1026 30.3 856 25.28 -15.6 3.9 72 -19.6 -3.3
17:30 1027 30.33 856 25.28 -15.6 3.8 72 -19.6 -3.2
17:35 1027 30.33 856 25.28 -15.8 3.5 73 -19.6 -3.3
17:40 1027 30.33 856 25.28 -15.9 3.3 73 -19.7 -3.4
17:45 1027 30.33 856 25.28 -16.1 3 73 -19.8 -3.7
17:50 1027 30.33 856 25.28 -16.2 2.9 74 -19.8 -3.7
17:55 1027 30.33 856 25.28 -16.1 3 74 -19.8 -3.6
18:00 1027 30.33 856 25.28 -16.3 2.7 74 -19.9 -3.8
18:05 1027 30.33 856 25.28 -16.3 2.6 75 -19.8 -3.6
18:10 1027 30.33 856 25.28 -16 3.3 72 -19.9 -3.8
18:15 1027 30.33 856 25.28 -16.3 2.6 74 -20 -4
18:20 1027 30.33 856 25.28 -17 1.5 76 -20.3 -4.6
18:25 1027 30.33 856 25.28 -17 1.4 76 -20.3 -4.5
18:30 1026 30.3 856 25.28 -16.9 1.6 75 -20.3 -4.5
18:35 1026 30.3 856 25.28 -17 1.4 75 -20.4 -4.8
18:40 1026 30.3 856 25.28 -17.2 1.1 75 -20.5 -5
18:45 1027 30.33 856 25.28 -17.5 0.5 76 -20.7 -5.3
18:50 1027 30.33 856 25.28 -17.8 -0.1 77 -20.9 -5.6
18:55 1026 30.3 856 25.28 -17.7 0.1 78 -20.7 -5.3
19:00 1026 30.3 856 25.28 -17.4 0.8 77 -20.5 -5
19:05 1026 30.3 856 25.28 -17 1.4 74 -20.7 -5.2
19:10 1026 30.3 856 25.28 -17.3 0.8 75 -20.8 -5.4
19:15 1026 30.3 856 25.28 -17.3 0.8 75 -20.8 -5.5
19:20 1026 30.3 856 25.28 -17.2 1.1 74 -20.7 -5.3
19:25 1027 30.33 856 25.28 -17 1.4 74 -20.7 -5.2
19:30 1027 30.33 856 25.28 -16.8 1.7 73 -20.6 -5.1
19:35 1026 30.3 856 25.28 -17 1.5 73 -20.8 -5.4
19:40 1026 30.3 856 25.28 -17.3 0.8 74 -21 -5.8
19:45 1026 30.3 856 25.28 -17.6 0.3 74 -21.3 -6.3
19:50 1026 30.3 856 25.28 -17.8 -0.1 73 -21.6 -6.8
19:55 1026 30.3 856 25.28 -18.4 -1.1 75 -21.8 -7.3
20:00 1026 30.3 856 25.28 -18.4 -1.1 76 -21.7 -7
20:05 1026 30.3 856 25.28 -17.9 -0.2 75 -21.3 -6.4
20:10 1026 30.3 856 25.28 -17.4 0.8 73 -21.2 -6.1
20:15 1026 30.3 856 25.28 -17.7 0.2 74 -21.3 -6.4
20:20 1026 30.3 856 25.28 -17.7 0.1 72 -21.6 -6.9
20:25 1026 30.3 856 25.28 -18 -0.3 72 -21.9 -7.3
20:30 1026 30.3 856 25.28 -18.7 -1.6 77 -21.8 -7.3
20:35 1026 30.3 856 25.28 -18.3 -1 77 -21.5 -6.7
20:40 1026 30.3 856 25.28 -18.1 -0.5 75 -21.5 -6.7
20:45 1026 30.3 856 25.28 -18.1 -0.6 73 -21.8 -7.2
20:50 1026 30.3 856 25.28 -18.3 -0.9 74 -21.9 -7.5
20:55 1026 30.3 856 25.28 -18.5 -1.3 73 -22.2 -7.9
21:00 1026 30.3 856 25.28 -19 -2.2 75 -22.4 -8.3
21:05 1026 30.3 856 25.28 -19 -2.1 74 -22.5 -8.6
21:10 1026 30.3 856 25.28 -19 -2.2 75 -22.4 -8.4
21:15 1026 30.3 856 25.28 -18.9 -2.1 75 -22.3 -8.2
21:20 1026 30.3 855 25.25 -18.8 -1.9 75 -22.2 -8
21:25 1026 30.3 855 25.25 -18.8 -1.8 75 -22.2 -7.9
21:30 1026 30.3 855 25.25 -18.5 -1.3 74 -22.1 -7.7
21:35 1026 30.3 855 25.25 -18.5 -1.4 75 -22 -7.6
21:40 1026 30.3 855 25.25 -18.9 -2.1 75 -22.4 -8.3
21:45 1026 30.3 855 25.25 -19.4 -2.9 76 -22.6 -8.7
21:50 1026 30.3 855 25.25 -19.3 -2.8 76 -22.5 -8.6
21:55 1026 30.3 855 25.25 -18.9 -2 74 -22.5 -8.5
22:00 1026 30.3 855 25.25 -19.1 -2.3 74 -22.6 -8.7
22:05 1026 30.3 855 25.25 -19.3 -2.8 74 -22.8 -9.1
22:10 1026 30.3 855 25.25 -19.6 -3.3 75 -23 -9.4
22:15 1026 30.3 855 25.25 -19.6 -3.2 75 -22.9 -9.3
22:20 1026 30.3 855 25.25 -19.2 -2.6 75 -22.6 -8.7
22:25 1026 30.3 855 25.25 -18.9 -2 74 -22.5 -8.5
22:30 1026 30.3 855 25.25 -18.7 -1.6 72 -22.5 -8.6
22:35 1026 30.3 855 25.25 -18.7 -1.7 73 -22.5 -8.5
22:40 1026 30.3 855 25.25 -18.6 -1.4 73 -22.3 -8.2
22:45 1026 30.3 855 25.25 -18.5 -1.3 73 -22.1 -7.9
22:50 1026 30.3 855 25.25 -18.2 -0.7 73 -21.9 -7.4
22:55 1026 30.3 855 25.25 -17.9 -0.1 72 -21.7 -7.1
23:00 1026 30.3 855 25.25 -17.7 0.2 72 -21.6 -6.8
23:05 1026 30.3 855 25.25 -17.4 0.8 71 -21.4 -6.4
23:10 1026 30.3 855 25.25 -16.9 1.6 70 -21.1 -6
23:15 1026 30.3 855 25.25 -16.5 2.3 70 -20.9 -5.5
23:20 1026 30.3 855 25.25 -16.5 2.3 69 -20.9 -5.5
23:25 1026 30.3 855 25.25 -16.6 2.2 70 -20.9 -5.6
23:30 1026 30.3 855 25.25 -16.7 1.9 70 -21 -5.8
23:35 1026 30.3 855 25.25 -17 1.5 71 -21.1 -6
23:40 1026 30.3 855 25.25 -17.1 1.2 71 -21.1 -6
23:45 1026 30.3 855 25.25 -17.1 1.2 72 -21.1 -6
23:50 1026 30.3 855 25.25 -17.2 1 72 -21.2 -6.1
23:55 1026 30.3 855 25.25 -17.2 1.1 71 -21.2 -6.2
24:00 1026 30.3 855 25.25 -17.1 1.2 71 -21.2 -6.1